sensor_id;sensor_type;location;lat;lon;timestamp;temperature;humidity
14347;DHT22;7257;52.158;9.968;2022-12-18T00:00:07;-3.00;99.90
14347;DHT22;7257;52.158;9.968;2022-12-18T00:00:28;-3.10;99.90
14347;DHT22;7257;52.158;9.968;2022-12-18T00:00:49;-3.10;99.90
14347;DHT22;7257;52.158;9.968;2022-12-18T00:01:15;-3.10;99.90
14347;DHT22;7257;52.158;9.968;2022-12-18T00:01:37;-3.10;99.90
14347;DHT22;7257;52.158;9.968;2022-12-18T00:02:00;-3.10;99.90
14347;DHT22;7257;52.158;9.968;2022-12-18T00:02:20;-3.10;99.90
14347;DHT22;7257;52.158;9.968;2022-12-18T00:02:42;-3.10;99.90
14347;DHT22;7257;52.158;9.968;2022-12-18T00:03:04;-3.10;99.90
14347;DHT22;7257;52.158;9.968;2022-12-18T00:03:25;-3.10;99.90
14347;DHT22;7257;52.158;9.968;2022-12-18T00:03:46;-3.10;99.90
14347;DHT22;7257;52.158;9.968;2022-12-18T00:04:14;-3.10;99.90
14347;DHT22;7257;52.158;9.968;2022-12-18T00:04:35;-3.10;99.90
14347;DHT22;7257;52.158;9.968;2022-12-18T00:05:00;-3.20;99.90
14347;DHT22;7257;52.158;9.968;2022-12-18T00:05:21;-3.20;99.90
14347;DHT22;7257;52.158;9.968;2022-12-18T00:05:48;-3.20;99.90
14347;DHT22;7257;52.158;9.968;2022-12-18T00:06:09;-3.20;99.90
14347;DHT22;7257;52.158;9.968;2022-12-18T00:06:32;-3.20;99.90
14347;DHT22;7257;52.158;9.968;2022-12-18T00:06:53;-3.20;99.90
14347;DHT22;7257;52.158;9.968;2022-12-18T00:07:14;-3.20;99.90
14347;DHT22;7257;52.158;9.968;2022-12-18T00:07:36;-3.20;99.90
14347;DHT22;7257;52.158;9.968;2022-12-18T00:07:57;-3.20;99.90
14347;DHT22;7257;52.158;9.968;2022-12-18T00:08:19;-3.30;99.90
14347;DHT22;7257;52.158;9.968;2022-12-18T00:08:40;-3.40;99.90
14347;DHT22;7257;52.158;9.968;2022-12-18T00:09:02;-3.20;99.90
14347;DHT22;7257;52.158;9.968;2022-12-18T00:09:24;-3.20;99.90
14347;DHT22;7257;52.158;9.968;2022-12-18T00:09:45;-3.20;99.90
14347;DHT22;7257;52.158;9.968;2022-12-18T00:10:07;-3.20;99.90
14347;DHT22;7257;52.158;9.968;2022-12-18T00:10:28;-3.20;99.90
14347;DHT22;7257;52.158;9.968;2022-12-18T00:10:50;-3.30;99.90
14347;DHT22;7257;52.158;9.968;2022-12-18T00:11:14;-3.30;99.90
14347;DHT22;7257;52.158;9.968;2022-12-18T00:11:35;-3.30;99.90
14347;DHT22;7257;52.158;9.968;2022-12-18T00:11:56;-3.20;99.90
14347;DHT22;7257;52.158;9.968;2022-12-18T00:12:17;-3.20;99.90
14347;DHT22;7257;52.158;9.968;2022-12-18T00:12:39;-3.20;99.90
14347;DHT22;7257;52.158;9.968;2022-12-18T00:13:00;-3.30;99.90
14347;DHT22;7257;52.158;9.968;2022-12-18T00:13:21;-3.30;99.90
14347;DHT22;7257;52.158;9.968;2022-12-18T00:13:42;-3.30;99.90
14347;DHT22;7257;52.158;9.968;2022-12-18T00:14:03;-3.30;99.90
14347;DHT22;7257;52.158;9.968;2022-12-18T00:14:25;-3.30;99.90
14347;DHT22;7257;52.158;9.968;2022-12-18T00:14:46;-3.30;99.90
14347;DHT22;7257;52.158;9.968;2022-12-18T00:15:07;-3.30;99.90
14347;DHT22;7257;52.158;9.968;2022-12-18T00:15:28;-3.20;99.90
14347;DHT22;7257;52.158;9.968;2022-12-18T00:15:50;-3.30;99.90
14347;DHT22;7257;52.158;9.968;2022-12-18T00:16:13;-3.30;99.90
14347;DHT22;7257;52.158;9.968;2022-12-18T00:16:34;-3.30;99.90
14347;DHT22;7257;52.158;9.968;2022-12-18T00:16:57;-3.30;99.90
14347;DHT22;7257;52.158;9.968;2022-12-18T00:17:22;-3.30;99.90
14347;DHT22;7257;52.158;9.968;2022-12-18T00:17:43;-3.30;99.90
14347;DHT22;7257;52.158;9.968;2022-12-18T00:18:04;-3.30;99.90
14347;DHT22;7257;52.158;9.968;2022-12-18T00:18:25;-3.30;99.90
14347;DHT22;7257;52.158;9.968;2022-12-18T00:18:46;-3.30;99.90
14347;DHT22;7257;52.158;9.968;2022-12-18T00:19:08;-3.30;99.90
14347;DHT22;7257;52.158;9.968;2022-12-18T00:19:30;-3.30;99.90
14347;DHT22;7257;52.158;9.968;2022-12-18T00:19:51;-3.30;99.90
14347;DHT22;7257;52.158;9.968;2022-12-18T00:20:12;-3.30;99.90
14347;DHT22;7257;52.158;9.968;2022-12-18T00:20:36;-3.40;99.90
14347;DHT22;7257;52.158;9.968;2022-12-18T00:20:58;-3.30;99.90
14347;DHT22;7257;52.158;9.968;2022-12-18T00:21:20;-3.30;99.90
14347;DHT22;7257;52.158;9.968;2022-12-18T00:21:42;-3.30;99.90
14347;DHT22;7257;52.158;9.968;2022-12-18T00:22:04;-3.50;99.90
14347;DHT22;7257;52.158;9.968;2022-12-18T00:22:26;-3.40;99.90
14347;DHT22;7257;52.158;9.968;2022-12-18T00:22:47;-3.40;99.90
14347;DHT22;7257;52.158;9.968;2022-12-18T00:23:08;-3.40;99.90
14347;DHT22;7257;52.158;9.968;2022-12-18T00:23:30;-3.40;99.90
14347;DHT22;7257;52.158;9.968;2022-12-18T00:23:51;-3.40;99.90
14347;DHT22;7257;52.158;9.968;2022-12-18T00:24:12;-3.30;99.90
14347;DHT22;7257;52.158;9.968;2022-12-18T00:24:33;-3.30;99.90
14347;DHT22;7257;52.158;9.968;2022-12-18T00:24:55;-3.40;99.90
14347;DHT22;7257;52.158;9.968;2022-12-18T00:25:16;-3.30;99.90
14347;DHT22;7257;52.158;9.968;2022-12-18T00:25:37;-3.30;99.90
14347;DHT22;7257;52.158;9.968;2022-12-18T00:25:59;-3.30;99.90
14347;DHT22;7257;52.158;9.968;2022-12-18T00:26:21;-3.30;99.90
14347;DHT22;7257;52.158;9.968;2022-12-18T00:26:43;-3.30;99.90
14347;DHT22;7257;52.158;9.968;2022-12-18T00:27:04;-3.30;99.90
14347;DHT22;7257;52.158;9.968;2022-12-18T00:27:25;-3.30;99.90
14347;DHT22;7257;52.158;9.968;2022-12-18T00:27:46;-3.40;99.90
14347;DHT22;7257;52.158;9.968;2022-12-18T00:28:08;-3.30;99.90
14347;DHT22;7257;52.158;9.968;2022-12-18T00:28:29;-3.30;99.90
14347;DHT22;7257;52.158;9.968;2022-12-18T00:28:50;-3.30;99.90
14347;DHT22;7257;52.158;9.968;2022-12-18T00:29:13;-3.30;99.90
14347;DHT22;7257;52.158;9.968;2022-12-18T00:29:35;-3.30;99.90
14347;DHT22;7257;52.158;9.968;2022-12-18T00:29:55;-3.30;99.90
14347;DHT22;7257;52.158;9.968;2022-12-18T00:30:16;-3.30;99.90
14347;DHT22;7257;52.158;9.968;2022-12-18T00:30:37;-3.30;99.90
14347;DHT22;7257;52.158;9.968;2022-12-18T00:31:01;-3.40;99.90
14347;DHT22;7257;52.158;9.968;2022-12-18T00:31:24;-3.30;99.90
14347;DHT22;7257;52.158;9.968;2022-12-18T00:31:46;-3.30;99.90
14347;DHT22;7257;52.158;9.968;2022-12-18T00:32:07;-3.30;99.90
14347;DHT22;7257;52.158;9.968;2022-12-18T00:32:29;-3.30;99.90
14347;DHT22;7257;52.158;9.968;2022-12-18T00:32:50;-3.20;99.90
14347;DHT22;7257;52.158;9.968;2022-12-18T00:33:12;-3.40;99.90
14347;DHT22;7257;52.158;9.968;2022-12-18T00:33:33;-3.20;99.90
14347;DHT22;7257;52.158;9.968;2022-12-18T00:33:54;-3.40;99.90
14347;DHT22;7257;52.158;9.968;2022-12-18T00:34:15;-3.30;99.90
14347;DHT22;7257;52.158;9.968;2022-12-18T00:34:37;-3.20;99.90
14347;DHT22;7257;52.158;9.968;2022-12-18T00:34:58;-3.30;99.90
14347;DHT22;7257;52.158;9.968;2022-12-18T00:35:19;-3.30;99.90
14347;DHT22;7257;52.158;9.968;2022-12-18T00:35:40;-3.30;99.90
14347;DHT22;7257;52.158;9.968;2022-12-18T00:36:02;-3.30;99.90
14347;DHT22;7257;52.158;9.968;2022-12-18T00:36:25;-3.30;99.90
14347;DHT22;7257;52.158;9.968;2022-12-18T00:36:47;-3.30;99.90
14347;DHT22;7257;52.158;9.968;2022-12-18T00:37:08;-3.30;99.90
14347;DHT22;7257;52.158;9.968;2022-12-18T00:37:30;-3.20;99.90
14347;DHT22;7257;52.158;9.968;2022-12-18T00:37:51;-3.20;99.90
14347;DHT22;7257;52.158;9.968;2022-12-18T00:38:12;-3.20;99.90
14347;DHT22;7257;52.158;9.968;2022-12-18T00:38:34;-3.20;99.90
14347;DHT22;7257;52.158;9.968;2022-12-18T00:38:55;-3.40;99.90
14347;DHT22;7257;52.158;9.968;2022-12-18T00:39:17;-3.20;99.90
14347;DHT22;7257;52.158;9.968;2022-12-18T00:39:38;-3.20;99.90
14347;DHT22;7257;52.158;9.968;2022-12-18T00:39:59;-3.40;99.90
14347;DHT22;7257;52.158;9.968;2022-12-18T00:40:20;-3.20;99.90
14347;DHT22;7257;52.158;9.968;2022-12-18T00:40:41;-3.20;99.90
14347;DHT22;7257;52.158;9.968;2022-12-18T00:41:03;-3.20;99.90
14347;DHT22;7257;52.158;9.968;2022-12-18T00:41:24;-3.20;99.90
14347;DHT22;7257;52.158;9.968;2022-12-18T00:42:04;-3.40;99.90
14347;DHT22;7257;52.158;9.968;2022-12-18T00:42:43;-3.20;99.90
14347;DHT22;7257;52.158;9.968;2022-12-18T00:43:16;-3.20;99.90
14347;DHT22;7257;52.158;9.968;2022-12-18T00:43:38;-3.20;99.90
14347;DHT22;7257;52.158;9.968;2022-12-18T00:43:59;-3.20;99.90
14347;DHT22;7257;52.158;9.968;2022-12-18T00:44:20;-3.20;99.90
14347;DHT22;7257;52.158;9.968;2022-12-18T00:44:41;-3.20;99.90
14347;DHT22;7257;52.158;9.968;2022-12-18T00:45:03;-3.30;99.90
14347;DHT22;7257;52.158;9.968;2022-12-18T00:45:24;-3.40;99.90
14347;DHT22;7257;52.158;9.968;2022-12-18T00:45:45;-3.30;99.90
14347;DHT22;7257;52.158;9.968;2022-12-18T00:46:06;-3.20;99.90
14347;DHT22;7257;52.158;9.968;2022-12-18T00:46:27;-3.20;99.90
14347;DHT22;7257;52.158;9.968;2022-12-18T00:46:49;-3.20;99.90
14347;DHT22;7257;52.158;9.968;2022-12-18T00:47:10;-3.20;99.90
14347;DHT22;7257;52.158;9.968;2022-12-18T00:47:32;-3.30;99.90
14347;DHT22;7257;52.158;9.968;2022-12-18T00:47:54;-3.30;99.90
14347;DHT22;7257;52.158;9.968;2022-12-18T00:48:16;-3.20;99.90
14347;DHT22;7257;52.158;9.968;2022-12-18T00:48:37;-3.20;99.90
14347;DHT22;7257;52.158;9.968;2022-12-18T00:48:58;-3.40;99.90
14347;DHT22;7257;52.158;9.968;2022-12-18T00:49:19;-3.20;99.90
14347;DHT22;7257;52.158;9.968;2022-12-18T00:49:41;-3.30;99.90
14347;DHT22;7257;52.158;9.968;2022-12-18T00:50:03;-3.20;99.90
14347;DHT22;7257;52.158;9.968;2022-12-18T00:50:25;-3.20;99.90
14347;DHT22;7257;52.158;9.968;2022-12-18T00:50:47;-3.20;99.90
14347;DHT22;7257;52.158;9.968;2022-12-18T00:51:08;-3.40;99.90
14347;DHT22;7257;52.158;9.968;2022-12-18T00:51:32;-3.20;99.90
14347;DHT22;7257;52.158;9.968;2022-12-18T00:51:56;-3.30;99.90
14347;DHT22;7257;52.158;9.968;2022-12-18T00:52:17;-3.30;99.90
14347;DHT22;7257;52.158;9.968;2022-12-18T00:52:42;-3.30;99.90
14347;DHT22;7257;52.158;9.968;2022-12-18T00:53:03;-3.30;99.90
14347;DHT22;7257;52.158;9.968;2022-12-18T00:53:24;-3.40;99.90
14347;DHT22;7257;52.158;9.968;2022-12-18T00:53:45;-3.30;99.90
14347;DHT22;7257;52.158;9.968;2022-12-18T00:54:06;-3.30;99.90
14347;DHT22;7257;52.158;9.968;2022-12-18T00:54:27;-3.30;99.90
14347;DHT22;7257;52.158;9.968;2022-12-18T00:54:48;-3.30;99.90
14347;DHT22;7257;52.158;9.968;2022-12-18T00:55:10;-3.30;99.90
14347;DHT22;7257;52.158;9.968;2022-12-18T00:55:32;-3.30;99.90
14347;DHT22;7257;52.158;9.968;2022-12-18T00:55:52;-3.30;99.90
14347;DHT22;7257;52.158;9.968;2022-12-18T00:56:13;-3.30;99.90
14347;DHT22;7257;52.158;9.968;2022-12-18T00:56:35;-3.30;99.90
14347;DHT22;7257;52.158;9.968;2022-12-18T00:56:58;-3.30;99.90
14347;DHT22;7257;52.158;9.968;2022-12-18T00:57:19;-3.50;99.90
14347;DHT22;7257;52.158;9.968;2022-12-18T00:57:40;-3.40;99.90
14347;DHT22;7257;52.158;9.968;2022-12-18T00:58:01;-3.40;99.90
14347;DHT22;7257;52.158;9.968;2022-12-18T00:58:22;-3.40;99.90
14347;DHT22;7257;52.158;9.968;2022-12-18T00:58:43;-3.40;99.90
14347;DHT22;7257;52.158;9.968;2022-12-18T00:59:04;-3.40;99.90
14347;DHT22;7257;52.158;9.968;2022-12-18T00:59:25;-3.50;99.90
14347;DHT22;7257;52.158;9.968;2022-12-18T00:59:46;-3.40;99.90
14347;DHT22;7257;52.158;9.968;2022-12-18T01:00:09;-3.40;99.90
14347;DHT22;7257;52.158;9.968;2022-12-18T01:00:31;-3.50;99.90
14347;DHT22;7257;52.158;9.968;2022-12-18T01:00:52;-3.40;99.90
14347;DHT22;7257;52.158;9.968;2022-12-18T01:01:13;-3.40;99.90
14347;DHT22;7257;52.158;9.968;2022-12-18T01:01:34;-3.50;99.90
14347;DHT22;7257;52.158;9.968;2022-12-18T01:01:55;-3.40;99.90
14347;DHT22;7257;52.158;9.968;2022-12-18T01:02:17;-3.40;99.90
14347;DHT22;7257;52.158;9.968;2022-12-18T01:02:40;-3.40;99.90
14347;DHT22;7257;52.158;9.968;2022-12-18T01:03:01;-3.40;99.90
14347;DHT22;7257;52.158;9.968;2022-12-18T01:03:22;-3.40;99.90
14347;DHT22;7257;52.158;9.968;2022-12-18T01:03:44;-3.40;99.90
14347;DHT22;7257;52.158;9.968;2022-12-18T01:04:07;-3.40;99.90
14347;DHT22;7257;52.158;9.968;2022-12-18T01:04:27;-3.40;99.90
14347;DHT22;7257;52.158;9.968;2022-12-18T01:04:48;-3.40;99.90
14347;DHT22;7257;52.158;9.968;2022-12-18T01:05:12;-3.40;99.90
14347;DHT22;7257;52.158;9.968;2022-12-18T01:05:33;-3.40;99.90
14347;DHT22;7257;52.158;9.968;2022-12-18T01:05:54;-3.50;99.90
14347;DHT22;7257;52.158;9.968;2022-12-18T01:06:16;-3.50;99.90
14347;DHT22;7257;52.158;9.968;2022-12-18T01:06:37;-3.40;99.90
14347;DHT22;7257;52.158;9.968;2022-12-18T01:06:59;-3.30;99.90
14347;DHT22;7257;52.158;9.968;2022-12-18T01:07:20;-3.50;99.90
14347;DHT22;7257;52.158;9.968;2022-12-18T01:07:41;-3.30;99.90
14347;DHT22;7257;52.158;9.968;2022-12-18T01:08:02;-3.30;99.90
14347;DHT22;7257;52.158;9.968;2022-12-18T01:08:23;-3.30;99.90
14347;DHT22;7257;52.158;9.968;2022-12-18T01:08:45;-3.40;99.90
14347;DHT22;7257;52.158;9.968;2022-12-18T01:09:06;-3.40;99.90
14347;DHT22;7257;52.158;9.968;2022-12-18T01:09:26;-3.40;99.90
14347;DHT22;7257;52.158;9.968;2022-12-18T01:09:47;-3.30;99.90
14347;DHT22;7257;52.158;9.968;2022-12-18T01:10:10;-3.30;99.90
14347;DHT22;7257;52.158;9.968;2022-12-18T01:10:33;-3.30;99.90
14347;DHT22;7257;52.158;9.968;2022-12-18T01:10:54;-3.40;99.90
14347;DHT22;7257;52.158;9.968;2022-12-18T01:11:16;-3.40;99.90
14347;DHT22;7257;52.158;9.968;2022-12-18T01:11:38;-3.40;99.90
14347;DHT22;7257;52.158;9.968;2022-12-18T01:11:58;-3.40;99.90
14347;DHT22;7257;52.158;9.968;2022-12-18T01:12:20;-3.30;99.90
14347;DHT22;7257;52.158;9.968;2022-12-18T01:12:41;-3.30;99.90
14347;DHT22;7257;52.158;9.968;2022-12-18T01:13:02;-3.30;99.90
14347;DHT22;7257;52.158;9.968;2022-12-18T01:13:23;-3.30;99.90
14347;DHT22;7257;52.158;9.968;2022-12-18T01:13:45;-3.30;99.90
14347;DHT22;7257;52.158;9.968;2022-12-18T01:14:06;-3.30;99.90
14347;DHT22;7257;52.158;9.968;2022-12-18T01:14:27;-3.30;99.90
14347;DHT22;7257;52.158;9.968;2022-12-18T01:14:47;-3.30;99.90
14347;DHT22;7257;52.158;9.968;2022-12-18T01:15:12;-3.30;99.90
14347;DHT22;7257;52.158;9.968;2022-12-18T01:15:33;-3.30;99.90
14347;DHT22;7257;52.158;9.968;2022-12-18T01:15:54;-3.30;99.90
14347;DHT22;7257;52.158;9.968;2022-12-18T01:16:17;-3.30;99.90
14347;DHT22;7257;52.158;9.968;2022-12-18T01:16:38;-3.50;99.90
14347;DHT22;7257;52.158;9.968;2022-12-18T01:17:00;-3.50;99.90
14347;DHT22;7257;52.158;9.968;2022-12-18T01:17:23;-3.40;99.90
14347;DHT22;7257;52.158;9.968;2022-12-18T01:17:45;-3.50;99.90
14347;DHT22;7257;52.158;9.968;2022-12-18T01:18:06;-3.40;99.90
14347;DHT22;7257;52.158;9.968;2022-12-18T01:18:27;-3.40;99.90
14347;DHT22;7257;52.158;9.968;2022-12-18T01:18:51;-3.50;99.90
14347;DHT22;7257;52.158;9.968;2022-12-18T01:19:13;-3.50;99.90
14347;DHT22;7257;52.158;9.968;2022-12-18T01:19:33;-3.50;99.90
14347;DHT22;7257;52.158;9.968;2022-12-18T01:19:54;-3.50;99.90
14347;DHT22;7257;52.158;9.968;2022-12-18T01:20:16;-3.50;99.90
14347;DHT22;7257;52.158;9.968;2022-12-18T01:20:38;-3.50;99.90
14347;DHT22;7257;52.158;9.968;2022-12-18T01:20:59;-3.50;99.90
14347;DHT22;7257;52.158;9.968;2022-12-18T01:21:20;-3.50;99.90
14347;DHT22;7257;52.158;9.968;2022-12-18T01:21:42;-3.50;99.90
14347;DHT22;7257;52.158;9.968;2022-12-18T01:22:03;-3.50;99.90
14347;DHT22;7257;52.158;9.968;2022-12-18T01:22:24;-3.60;99.90
14347;DHT22;7257;52.158;9.968;2022-12-18T01:22:45;-3.50;99.90
14347;DHT22;7257;52.158;9.968;2022-12-18T01:23:06;-3.40;99.90
14347;DHT22;7257;52.158;9.968;2022-12-18T01:23:27;-3.40;99.90
14347;DHT22;7257;52.158;9.968;2022-12-18T01:23:51;-3.40;99.90
14347;DHT22;7257;52.158;9.968;2022-12-18T01:24:12;-3.40;99.90
14347;DHT22;7257;52.158;9.968;2022-12-18T01:24:33;-3.40;99.90
14347;DHT22;7257;52.158;9.968;2022-12-18T01:24:55;-3.50;99.90
14347;DHT22;7257;52.158;9.968;2022-12-18T01:25:16;-3.40;99.90
14347;DHT22;7257;52.158;9.968;2022-12-18T01:25:37;-3.40;99.90
14347;DHT22;7257;52.158;9.968;2022-12-18T01:26:04;-3.50;99.90
14347;DHT22;7257;52.158;9.968;2022-12-18T01:26:25;-3.50;99.90
14347;DHT22;7257;52.158;9.968;2022-12-18T01:26:50;-3.50;99.90
14347;DHT22;7257;52.158;9.968;2022-12-18T01:27:11;-3.50;99.90
14347;DHT22;7257;52.158;9.968;2022-12-18T01:27:33;-3.40;99.90
14347;DHT22;7257;52.158;9.968;2022-12-18T01:27:54;-3.30;99.90
14347;DHT22;7257;52.158;9.968;2022-12-18T01:28:15;-3.40;99.90
14347;DHT22;7257;52.158;9.968;2022-12-18T01:28:36;-3.30;99.90
14347;DHT22;7257;52.158;9.968;2022-12-18T01:28:58;-3.30;99.90
14347;DHT22;7257;52.158;9.968;2022-12-18T01:29:19;-3.20;99.90
14347;DHT22;7257;52.158;9.968;2022-12-18T01:29:39;-3.20;99.90
14347;DHT22;7257;52.158;9.968;2022-12-18T01:30:00;-3.30;99.90
14347;DHT22;7257;52.158;9.968;2022-12-18T01:30:21;-3.40;99.90
14347;DHT22;7257;52.158;9.968;2022-12-18T01:30:43;-3.30;99.90
14347;DHT22;7257;52.158;9.968;2022-12-18T01:31:16;-3.40;99.90
14347;DHT22;7257;52.158;9.968;2022-12-18T01:31:37;-3.30;99.90
14347;DHT22;7257;52.158;9.968;2022-12-18T01:31:58;-3.30;99.90
14347;DHT22;7257;52.158;9.968;2022-12-18T01:32:19;-3.30;99.90
14347;DHT22;7257;52.158;9.968;2022-12-18T01:32:41;-3.40;99.90
14347;DHT22;7257;52.158;9.968;2022-12-18T01:33:04;-3.50;99.90
14347;DHT22;7257;52.158;9.968;2022-12-18T01:33:25;-3.40;99.90
14347;DHT22;7257;52.158;9.968;2022-12-18T01:33:49;-3.40;99.90
14347;DHT22;7257;52.158;9.968;2022-12-18T01:34:11;-3.50;99.90
14347;DHT22;7257;52.158;9.968;2022-12-18T01:34:32;-3.50;99.90
14347;DHT22;7257;52.158;9.968;2022-12-18T01:34:55;-3.50;99.90
14347;DHT22;7257;52.158;9.968;2022-12-18T01:35:16;-3.50;99.90
14347;DHT22;7257;52.158;9.968;2022-12-18T01:35:40;-3.50;99.90
14347;DHT22;7257;52.158;9.968;2022-12-18T01:36:02;-3.60;99.90
14347;DHT22;7257;52.158;9.968;2022-12-18T01:36:24;-3.60;99.90
14347;DHT22;7257;52.158;9.968;2022-12-18T01:36:45;-3.60;99.90
14347;DHT22;7257;52.158;9.968;2022-12-18T01:37:07;-3.60;99.90
14347;DHT22;7257;52.158;9.968;2022-12-18T01:37:28;-3.50;99.90
14347;DHT22;7257;52.158;9.968;2022-12-18T01:37:49;-3.50;99.90
14347;DHT22;7257;52.158;9.968;2022-12-18T01:38:10;-3.50;99.90
14347;DHT22;7257;52.158;9.968;2022-12-18T01:38:30;-3.50;99.90
14347;DHT22;7257;52.158;9.968;2022-12-18T01:38:52;-3.40;99.90
14347;DHT22;7257;52.158;9.968;2022-12-18T01:39:14;-3.40;99.90
14347;DHT22;7257;52.158;9.968;2022-12-18T01:39:35;-3.40;99.90
14347;DHT22;7257;52.158;9.968;2022-12-18T01:39:56;-3.40;99.90
14347;DHT22;7257;52.158;9.968;2022-12-18T01:40:17;-3.40;99.90
14347;DHT22;7257;52.158;9.968;2022-12-18T01:40:39;-3.40;99.90
14347;DHT22;7257;52.158;9.968;2022-12-18T01:41:00;-3.40;99.90
14347;DHT22;7257;52.158;9.968;2022-12-18T01:41:23;-3.30;99.90
14347;DHT22;7257;52.158;9.968;2022-12-18T01:41:45;-3.40;99.90
14347;DHT22;7257;52.158;9.968;2022-12-18T01:42:23;-3.40;99.90
14347;DHT22;7257;52.158;9.968;2022-12-18T01:42:44;-3.40;99.90
14347;DHT22;7257;52.158;9.968;2022-12-18T01:43:05;-3.40;99.90
14347;DHT22;7257;52.158;9.968;2022-12-18T01:43:44;-3.30;99.90
14347;DHT22;7257;52.158;9.968;2022-12-18T01:45:04;-3.30;99.90
14347;DHT22;7257;52.158;9.968;2022-12-18T01:45:28;-3.40;99.90
14347;DHT22;7257;52.158;9.968;2022-12-18T01:45:49;-3.30;99.90
14347;DHT22;7257;52.158;9.968;2022-12-18T01:46:10;-3.50;99.90
14347;DHT22;7257;52.158;9.968;2022-12-18T01:46:31;-3.40;99.90
14347;DHT22;7257;52.158;9.968;2022-12-18T01:46:53;-3.50;99.90
14347;DHT22;7257;52.158;9.968;2022-12-18T01:47:15;-3.40;99.90
14347;DHT22;7257;52.158;9.968;2022-12-18T01:47:41;-3.40;99.90
14347;DHT22;7257;52.158;9.968;2022-12-18T01:48:06;-3.50;99.90
14347;DHT22;7257;52.158;9.968;2022-12-18T01:48:29;-3.60;99.90
14347;DHT22;7257;52.158;9.968;2022-12-18T01:48:53;-3.50;99.90
14347;DHT22;7257;52.158;9.968;2022-12-18T01:49:16;-3.50;99.90
14347;DHT22;7257;52.158;9.968;2022-12-18T01:49:36;-3.70;99.90
14347;DHT22;7257;52.158;9.968;2022-12-18T01:50:00;-3.60;99.90
14347;DHT22;7257;52.158;9.968;2022-12-18T01:50:23;-3.80;99.90
14347;DHT22;7257;52.158;9.968;2022-12-18T01:50:45;-3.80;99.90
14347;DHT22;7257;52.158;9.968;2022-12-18T01:51:08;-3.70;99.90
14347;DHT22;7257;52.158;9.968;2022-12-18T01:51:30;-3.80;99.90
14347;DHT22;7257;52.158;9.968;2022-12-18T01:51:51;-3.60;99.90
14347;DHT22;7257;52.158;9.968;2022-12-18T01:52:13;-3.60;99.90
14347;DHT22;7257;52.158;9.968;2022-12-18T01:52:36;-3.80;99.90
14347;DHT22;7257;52.158;9.968;2022-12-18T01:52:59;-3.60;99.90
14347;DHT22;7257;52.158;9.968;2022-12-18T01:53:22;-3.60;99.90
14347;DHT22;7257;52.158;9.968;2022-12-18T01:53:44;-3.80;99.90
14347;DHT22;7257;52.158;9.968;2022-12-18T01:54:07;-3.60;99.90
14347;DHT22;7257;52.158;9.968;2022-12-18T01:54:28;-3.70;99.90
14347;DHT22;7257;52.158;9.968;2022-12-18T01:54:50;-3.60;99.90
14347;DHT22;7257;52.158;9.968;2022-12-18T01:55:12;-3.80;99.90
14347;DHT22;7257;52.158;9.968;2022-12-18T01:55:38;-3.80;99.90
14347;DHT22;7257;52.158;9.968;2022-12-18T01:56:00;-3.70;99.90
14347;DHT22;7257;52.158;9.968;2022-12-18T01:56:22;-3.60;99.90
14347;DHT22;7257;52.158;9.968;2022-12-18T01:56:43;-3.80;99.90
14347;DHT22;7257;52.158;9.968;2022-12-18T01:57:04;-3.80;99.90
14347;DHT22;7257;52.158;9.968;2022-12-18T01:57:26;-3.80;99.90
14347;DHT22;7257;52.158;9.968;2022-12-18T01:57:49;-3.80;99.90
14347;DHT22;7257;52.158;9.968;2022-12-18T01:58:12;-3.60;99.90
14347;DHT22;7257;52.158;9.968;2022-12-18T01:58:41;-3.80;99.90
14347;DHT22;7257;52.158;9.968;2022-12-18T01:59:06;-3.60;99.90
14347;DHT22;7257;52.158;9.968;2022-12-18T01:59:31;-3.60;99.90
14347;DHT22;7257;52.158;9.968;2022-12-18T01:59:55;-3.70;99.90
14347;DHT22;7257;52.158;9.968;2022-12-18T02:00:19;-3.70;99.90
14347;DHT22;7257;52.158;9.968;2022-12-18T02:00:41;-3.70;99.90
14347;DHT22;7257;52.158;9.968;2022-12-18T02:01:03;-3.70;99.90
14347;DHT22;7257;52.158;9.968;2022-12-18T02:01:25;-3.60;99.90
14347;DHT22;7257;52.158;9.968;2022-12-18T02:01:46;-3.60;99.90
14347;DHT22;7257;52.158;9.968;2022-12-18T02:02:07;-3.50;99.90
14347;DHT22;7257;52.158;9.968;2022-12-18T02:02:30;-3.70;99.90
14347;DHT22;7257;52.158;9.968;2022-12-18T02:02:52;-3.70;99.90
14347;DHT22;7257;52.158;9.968;2022-12-18T02:03:15;-3.60;99.90
14347;DHT22;7257;52.158;9.968;2022-12-18T02:03:36;-3.60;99.90
14347;DHT22;7257;52.158;9.968;2022-12-18T02:04:18;-3.70;99.90
14347;DHT22;7257;52.158;9.968;2022-12-18T02:04:41;-3.60;99.90
14347;DHT22;7257;52.158;9.968;2022-12-18T02:05:03;-3.60;99.90
14347;DHT22;7257;52.158;9.968;2022-12-18T02:05:34;-3.70;99.90
14347;DHT22;7257;52.158;9.968;2022-12-18T02:06:03;-3.70;99.90
14347;DHT22;7257;52.158;9.968;2022-12-18T02:06:31;-3.80;99.90
14347;DHT22;7257;52.158;9.968;2022-12-18T02:06:58;-3.70;99.90
14347;DHT22;7257;52.158;9.968;2022-12-18T02:07:29;-3.70;99.90
14347;DHT22;7257;52.158;9.968;2022-12-18T02:07:59;-3.70;99.90
14347;DHT22;7257;52.158;9.968;2022-12-18T02:08:29;-3.80;99.90
14347;DHT22;7257;52.158;9.968;2022-12-18T02:09:00;-3.70;99.90
14347;DHT22;7257;52.158;9.968;2022-12-18T02:09:26;-3.80;99.90
14347;DHT22;7257;52.158;9.968;2022-12-18T02:09:55;-3.70;99.90
14347;DHT22;7257;52.158;9.968;2022-12-18T02:10:22;-3.80;99.90
14347;DHT22;7257;52.158;9.968;2022-12-18T02:10:48;-3.80;99.90
14347;DHT22;7257;52.158;9.968;2022-12-18T02:11:18;-3.80;99.90
14347;DHT22;7257;52.158;9.968;2022-12-18T02:11:49;-3.80;99.90
14347;DHT22;7257;52.158;9.968;2022-12-18T02:12:17;-3.70;99.90
14347;DHT22;7257;52.158;9.968;2022-12-18T02:12:44;-3.90;99.90
14347;DHT22;7257;52.158;9.968;2022-12-18T02:13:12;-3.90;99.90
14347;DHT22;7257;52.158;9.968;2022-12-18T02:13:40;-3.90;99.90
14347;DHT22;7257;52.158;9.968;2022-12-18T02:14:11;-3.90;99.90
14347;DHT22;7257;52.158;9.968;2022-12-18T02:14:40;-3.90;99.90
14347;DHT22;7257;52.158;9.968;2022-12-18T02:15:09;-3.90;99.90
14347;DHT22;7257;52.158;9.968;2022-12-18T02:15:38;-3.90;99.90
14347;DHT22;7257;52.158;9.968;2022-12-18T02:16:31;-3.90;99.90
14347;DHT22;7257;52.158;9.968;2022-12-18T02:16:59;-3.90;99.90
14347;DHT22;7257;52.158;9.968;2022-12-18T02:17:23;-3.90;99.90
14347;DHT22;7257;52.158;9.968;2022-12-18T02:17:48;-3.90;99.90
14347;DHT22;7257;52.158;9.968;2022-12-18T02:18:13;-3.90;99.90
14347;DHT22;7257;52.158;9.968;2022-12-18T02:18:40;-3.90;99.90
14347;DHT22;7257;52.158;9.968;2022-12-18T02:19:08;-3.90;99.90
14347;DHT22;7257;52.158;9.968;2022-12-18T02:19:46;-3.90;99.90
14347;DHT22;7257;52.158;9.968;2022-12-18T02:20:13;-3.90;99.90
14347;DHT22;7257;52.158;9.968;2022-12-18T02:20:43;-3.90;99.90
14347;DHT22;7257;52.158;9.968;2022-12-18T02:21:11;-3.90;99.90
14347;DHT22;7257;52.158;9.968;2022-12-18T02:21:40;-3.70;99.90
14347;DHT22;7257;52.158;9.968;2022-12-18T02:22:16;-3.90;99.90
14347;DHT22;7257;52.158;9.968;2022-12-18T02:22:44;-3.90;99.90
14347;DHT22;7257;52.158;9.968;2022-12-18T02:23:17;-3.90;99.90
14347;DHT22;7257;52.158;9.968;2022-12-18T02:23:49;-3.80;99.90
14347;DHT22;7257;52.158;9.968;2022-12-18T02:24:21;-3.90;99.90
14347;DHT22;7257;52.158;9.968;2022-12-18T02:24:54;-3.80;99.90
14347;DHT22;7257;52.158;9.968;2022-12-18T02:25:27;-3.80;99.90
14347;DHT22;7257;52.158;9.968;2022-12-18T02:26:06;-3.80;99.90
14347;DHT22;7257;52.158;9.968;2022-12-18T02:26:31;-3.80;99.90
14347;DHT22;7257;52.158;9.968;2022-12-18T02:26:59;-3.90;99.90
14347;DHT22;7257;52.158;9.968;2022-12-18T02:27:20;-3.80;99.90
14347;DHT22;7257;52.158;9.968;2022-12-18T02:27:45;-3.80;99.90
14347;DHT22;7257;52.158;9.968;2022-12-18T02:28:09;-3.80;99.90
14347;DHT22;7257;52.158;9.968;2022-12-18T02:28:34;-3.80;99.90